sensor_id;sensor_type;location;lat;lon;timestamp;pressure;altitude;pressure_sealevel;temperature;humidity
44297;BME280;51842;47.450;8.654;2023-02-17T00:01:41;96544.78;;;4.33;70.17
44297;BME280;51842;47.450;8.654;2023-02-17T00:04:22;96545.97;;;4.44;69.95
44297;BME280;51842;47.450;8.654;2023-02-17T00:06:55;96551.88;;;4.46;71.23
44297;BME280;51842;47.450;8.654;2023-02-17T00:09:27;96545.19;;;4.50;70.27
44297;BME280;51842;47.450;8.654;2023-02-17T00:11:56;96537.88;;;4.52;71.71
44297;BME280;51842;47.450;8.654;2023-02-17T00:14:29;96541.31;;;4.59;71.97
44297;BME280;51842;47.450;8.654;2023-02-17T00:16:55;96547.41;;;4.60;71.35
44297;BME280;51842;47.450;8.654;2023-02-17T00:19:27;96549.47;;;4.64;70.94
44297;BME280;51842;47.450;8.654;2023-02-17T00:21:57;96550.88;;;4.67;70.55
44297;BME280;51842;47.450;8.654;2023-02-17T00:24:28;96549.84;;;4.68;71.72
44297;BME280;51842;47.450;8.654;2023-02-17T00:26:54;96553.31;;;4.69;73.08
44297;BME280;51842;47.450;8.654;2023-02-17T00:29:29;96560.41;;;4.68;73.27
44297;BME280;51842;47.450;8.654;2023-02-17T00:32:01;96551.28;;;4.64;73.69
44297;BME280;51842;47.450;8.654;2023-02-17T00:34:27;96554.13;;;4.49;74.75
44297;BME280;51842;47.450;8.654;2023-02-17T00:36:53;96549.03;;;4.41;74.42
44297;BME280;51842;47.450;8.654;2023-02-17T00:39:19;96561.19;;;4.35;74.50
44297;BME280;51842;47.450;8.654;2023-02-17T00:41:45;96558.13;;;4.25;73.12
44297;BME280;51842;47.450;8.654;2023-02-17T00:44:23;96561.81;;;4.24;74.41
44297;BME280;51842;47.450;8.654;2023-02-17T00:46:50;96559.56;;;4.21;75.33
44297;BME280;51842;47.450;8.654;2023-02-17T00:49:25;96567.88;;;4.18;75.04
44297;BME280;51842;47.450;8.654;2023-02-17T00:51:58;96559.94;;;4.11;74.71
44297;BME280;51842;47.450;8.654;2023-02-17T00:54:28;96560.13;;;4.03;75.25
44297;BME280;51842;47.450;8.654;2023-02-17T00:56:57;96568.44;;;4.00;75.33
44297;BME280;51842;47.450;8.654;2023-02-17T00:59:22;96568.22;;;3.95;74.96
44297;BME280;51842;47.450;8.654;2023-02-17T01:01:51;96565.75;;;3.87;75.39
44297;BME280;51842;47.450;8.654;2023-02-17T01:04:19;96565.50;;;3.75;76.36
44297;BME280;51842;47.450;8.654;2023-02-17T01:06:45;96565.72;;;3.67;76.56
44297;BME280;51842;47.450;8.654;2023-02-17T01:09:17;96571.94;;;3.59;77.42
44297;BME280;51842;47.450;8.654;2023-02-17T01:11:45;96575.16;;;3.48;77.43
44297;BME280;51842;47.450;8.654;2023-02-17T01:14:13;96572.13;;;3.51;77.85
44297;BME280;51842;47.450;8.654;2023-02-17T01:16:47;96562.69;;;3.35;77.83
44297;BME280;51842;47.450;8.654;2023-02-17T01:19:18;96570.59;;;3.35;78.49
44297;BME280;51842;47.450;8.654;2023-02-17T01:21:45;96568.97;;;3.34;78.34
44297;BME280;51842;47.450;8.654;2023-02-17T01:24:17;96572.25;;;3.36;78.70
44297;BME280;51842;47.450;8.654;2023-02-17T01:26:43;96570.81;;;3.34;78.40
44297;BME280;51842;47.450;8.654;2023-02-17T01:29:09;96576.88;;;3.34;78.55
44297;BME280;51842;47.450;8.654;2023-02-17T01:31:39;96569.63;;;3.36;78.29
44297;BME280;51842;47.450;8.654;2023-02-17T01:34:09;96568.84;;;3.42;77.98
44297;BME280;51842;47.450;8.654;2023-02-17T01:36:34;96577.56;;;3.50;78.16
44297;BME280;51842;47.450;8.654;2023-02-17T01:39:00;96570.13;;;3.60;76.01
44297;BME280;51842;47.450;8.654;2023-02-17T01:41:30;96570.75;;;3.68;75.50
44297;BME280;51842;47.450;8.654;2023-02-17T01:44:23;96563.75;;;3.89;73.16
44297;BME280;51842;47.450;8.654;2023-02-17T01:46:55;96572.72;;;4.08;72.68
44297;BME280;51842;47.450;8.654;2023-02-17T01:52:12;96555.31;;;4.40;70.05
44297;BME280;51842;47.450;8.654;2023-02-17T01:55:05;96562.03;;;4.56;69.24
44297;BME280;51842;47.450;8.654;2023-02-17T01:57:42;96552.50;;;4.68;69.57
44297;BME280;51842;47.450;8.654;2023-02-17T02:00:13;96547.84;;;4.77;68.18
44297;BME280;51842;47.450;8.654;2023-02-17T02:02:47;96543.13;;;4.85;67.81
44297;BME280;51842;47.450;8.654;2023-02-17T02:05:15;96547.59;;;4.98;66.24
44297;BME280;51842;47.450;8.654;2023-02-17T02:07:45;96540.66;;;5.10;66.63
44297;BME280;51842;47.450;8.654;2023-02-17T02:10:15;96534.53;;;5.17;67.26
44297;BME280;51842;47.450;8.654;2023-02-17T02:12:42;96531.31;;;5.21;66.36
44297;BME280;51842;47.450;8.654;2023-02-17T02:15:14;96536.34;;;5.29;65.58
44297;BME280;51842;47.450;8.654;2023-02-17T02:34:21;96534.75;;;5.80;61.89
44297;BME280;51842;47.450;8.654;2023-02-17T02:37:14;96532.06;;;5.87;62.03
44297;BME280;51842;47.450;8.654;2023-02-17T02:39:51;96532.88;;;5.94;61.58
44297;BME280;51842;47.450;8.654;2023-02-17T02:42:23;96524.09;;;6.00;61.25
44297;BME280;51842;47.450;8.654;2023-02-17T02:44:53;96519.13;;;6.10;61.04
44297;BME280;51842;47.450;8.654;2023-02-17T02:47:58;96518.66;;;6.20;60.09
44297;BME280;51842;47.450;8.654;2023-02-17T02:54:55;96522.00;;;6.40;59.28
44297;BME280;51842;47.450;8.654;2023-02-17T02:58:02;96518.06;;;6.49;59.14
44297;BME280;51842;47.450;8.654;2023-02-17T03:01:16;96519.63;;;6.57;59.48
44297;BME280;51842;47.450;8.654;2023-02-17T03:04:30;96519.78;;;6.62;58.99
44297;BME280;51842;47.450;8.654;2023-02-17T03:07:48;96517.28;;;6.67;58.89
44297;BME280;51842;47.450;8.654;2023-02-17T03:10:20;96520.53;;;6.69;58.20
44297;BME280;51842;47.450;8.654;2023-02-17T03:12:46;96525.19;;;6.74;58.39
44297;BME280;51842;47.450;8.654;2023-02-17T03:15:33;96518.88;;;6.75;58.83
44297;BME280;51842;47.450;8.654;2023-02-17T03:18:02;96516.41;;;6.73;59.34
44297;BME280;51842;47.450;8.654;2023-02-17T03:20:55;96518.91;;;6.68;59.26
44297;BME280;51842;47.450;8.654;2023-02-17T03:23:25;96525.22;;;6.67;58.81
44297;BME280;51842;47.450;8.654;2023-02-17T03:25:50;96521.34;;;6.70;58.67
44297;BME280;51842;47.450;8.654;2023-02-17T03:28:16;96513.34;;;6.77;58.03
44297;BME280;51842;47.450;8.654;2023-02-17T03:30:58;96519.41;;;6.84;58.15
44297;BME280;51842;47.450;8.654;2023-02-17T03:33:26;96518.53;;;6.90;57.98
44297;BME280;51842;47.450;8.654;2023-02-17T03:35:54;96519.09;;;6.92;58.24
44297;BME280;51842;47.450;8.654;2023-02-17T03:38:20;96516.25;;;6.93;58.10
44297;BME280;51842;47.450;8.654;2023-02-17T03:40:46;96515.59;;;6.98;58.17
44297;BME280;51842;47.450;8.654;2023-02-17T03:43:18;96519.88;;;6.99;57.76
44297;BME280;51842;47.450;8.654;2023-02-17T03:45:49;96507.81;;;7.03;57.35
44297;BME280;51842;47.450;8.654;2023-02-17T03:48:18;96515.47;;;7.11;56.83
44297;BME280;51842;47.450;8.654;2023-02-17T03:50:47;96517.63;;;7.21;57.16
44297;BME280;51842;47.450;8.654;2023-02-17T03:53:16;96515.91;;;7.27;57.41
44297;BME280;51842;47.450;8.654;2023-02-17T03:55:50;96518.94;;;7.30;57.66
44297;BME280;51842;47.450;8.654;2023-02-17T03:58:16;96525.84;;;7.31;57.81
44297;BME280;51842;47.450;8.654;2023-02-17T04:00:42;96524.00;;;7.32;57.37
44297;BME280;51842;47.450;8.654;2023-02-17T04:03:08;96522.16;;;7.32;57.25
44297;BME280;51842;47.450;8.654;2023-02-17T04:05:34;96529.91;;;7.34;57.45
44297;BME280;51842;47.450;8.654;2023-02-17T04:07:59;96521.72;;;7.35;57.38
44297;BME280;51842;47.450;8.654;2023-02-17T04:10:28;96525.41;;;7.34;57.38
44297;BME280;51842;47.450;8.654;2023-02-17T04:12:57;96519.88;;;7.36;57.05
44297;BME280;51842;47.450;8.654;2023-02-17T04:15:29;96528.00;;;7.41;57.10
44297;BME280;51842;47.450;8.654;2023-02-17T04:17:55;96528.94;;;7.47;57.55
44297;BME280;51842;47.450;8.654;2023-02-17T04:20:21;96526.88;;;7.49;57.41
44297;BME280;51842;47.450;8.654;2023-02-17T04:22:53;96535.66;;;7.49;57.00
44297;BME280;51842;47.450;8.654;2023-02-17T04:25:18;96537.03;;;7.52;57.03
44297;BME280;51842;47.450;8.654;2023-02-17T04:27:44;96541.75;;;7.50;57.06
44297;BME280;51842;47.450;8.654;2023-02-17T04:30:14;96540.50;;;7.52;57.29
44297;BME280;51842;47.450;8.654;2023-02-17T04:32:40;96532.78;;;7.51;57.32
44297;BME280;51842;47.450;8.654;2023-02-17T04:35:14;96536.22;;;7.51;57.41
44297;BME280;51842;47.450;8.654;2023-02-17T04:37:40;96537.88;;;7.52;57.37
44297;BME280;51842;47.450;8.654;2023-02-17T04:40:15;96538.66;;;7.53;57.54
44297;BME280;51842;47.450;8.654;2023-02-17T04:42:43;96540.97;;;7.49;57.61
44297;BME280;51842;47.450;8.654;2023-02-17T04:45:12;96540.97;;;7.49;58.13
44297;BME280;51842;47.450;8.654;2023-02-17T04:47:40;96540.13;;;7.49;57.85
44297;BME280;51842;47.450;8.654;2023-02-17T04:50:09;96538.06;;;7.51;57.86
44297;BME280;51842;47.450;8.654;2023-02-17T04:52:36;96538.88;;;7.51;57.82
44297;BME280;51842;47.450;8.654;2023-02-17T04:55:04;96538.88;;;7.51;57.94
44297;BME280;51842;47.450;8.654;2023-02-17T04:57:33;96533.38;;;7.53;57.67
44297;BME280;51842;47.450;8.654;2023-02-17T05:00:05;96536.81;;;7.53;57.65
44297;BME280;51842;47.450;8.654;2023-02-17T05:02:32;96535.78;;;7.54;57.65
44297;BME280;51842;47.450;8.654;2023-02-17T05:04:58;96540.28;;;7.54;58.40
44297;BME280;51842;47.450;8.654;2023-02-17T05:07:26;96539.31;;;7.48;57.51
44297;BME280;51842;47.450;8.654;2023-02-17T05:09:54;96539.91;;;7.50;57.56
44297;BME280;51842;47.450;8.654;2023-02-17T05:12:23;96534.19;;;7.53;58.40
44297;BME280;51842;47.450;8.654;2023-02-17T05:14:49;96536.59;;;7.55;58.25
44297;BME280;51842;47.450;8.654;2023-02-17T05:17:23;96537.88;;;7.52;57.78
44297;BME280;51842;47.450;8.654;2023-02-17T05:19:49;96537.88;;;7.52;58.55
44297;BME280;51842;47.450;8.654;2023-02-17T05:22:15;96532.56;;;7.52;59.12
44297;BME280;51842;47.450;8.654;2023-02-17T05:24:41;96528.06;;;7.53;58.78
44297;BME280;51842;47.450;8.654;2023-02-17T05:27:07;96524.59;;;7.52;58.95
44297;BME280;51842;47.450;8.654;2023-02-17T05:29:33;96526.81;;;7.55;58.53
44297;BME280;51842;47.450;8.654;2023-02-17T05:31:59;96526.13;;;7.60;58.67
44297;BME280;51842;47.450;8.654;2023-02-17T05:34:28;96516.34;;;7.60;58.72
44297;BME280;51842;47.450;8.654;2023-02-17T05:36:53;96522.25;;;7.62;58.87
44297;BME280;51842;47.450;8.654;2023-02-17T05:39:19;96516.94;;;7.62;59.26
44297;BME280;51842;47.450;8.654;2023-02-17T05:41:48;96517.75;;;7.63;59.43
44297;BME280;51842;47.450;8.654;2023-02-17T05:44:14;96521.78;;;7.65;59.47
44297;BME280;51842;47.450;8.654;2023-02-17T05:46:46;96517.75;;;7.63;59.99
44297;BME280;51842;47.450;8.654;2023-02-17T05:49:14;96522.88;;;7.58;59.57
44297;BME280;51842;47.450;8.654;2023-02-17T05:51:40;96530.03;;;7.57;59.92
44297;BME280;51842;47.450;8.654;2023-02-17T05:54:15;96528.19;;;7.58;60.23
44297;BME280;51842;47.450;8.654;2023-02-17T05:56:41;96521.28;;;7.57;59.89
44297;BME280;51842;47.450;8.654;2023-02-17T05:59:09;96526.56;;;7.57;59.57
44297;BME280;51842;47.450;8.654;2023-02-17T06:01:35;96528.44;;;7.56;59.98
44297;BME280;51842;47.450;8.654;2023-02-17T06:04:02;96525.97;;;7.55;59.82
44297;BME280;51842;47.450;8.654;2023-02-17T06:06:31;96527.38;;;7.57;59.86
44297;BME280;51842;47.450;8.654;2023-02-17T06:08:59;96521.50;;;7.55;59.54
44297;BME280;51842;47.450;8.654;2023-02-17T06:11:25;96524.16;;;7.55;59.59
44297;BME280;51842;47.450;8.654;2023-02-17T06:13:57;96524.97;;;7.56;59.37
44297;BME280;51842;47.450;8.654;2023-02-17T06:16:26;96530.84;;;7.58;59.71
44297;BME280;51842;47.450;8.654;2023-02-17T06:18:58;96530.84;;;7.58;59.72
44297;BME280;51842;47.450;8.654;2023-02-17T06:21:27;96534.53;;;7.57;60.59
44297;BME280;51842;47.450;8.654;2023-02-17T06:24:03;96534.31;;;7.58;61.37
44297;BME280;51842;47.450;8.654;2023-02-17T06:26:38;96532.69;;;7.57;62.48
44297;BME280;51842;47.450;8.654;2023-02-17T06:29:06;96538.22;;;7.56;61.67
44297;BME280;51842;47.450;8.654;2023-02-17T06:31:34;96533.56;;;7.51;61.74
44297;BME280;51842;47.450;8.654;2023-02-17T06:34:00;96543.59;;;7.49;62.38
44297;BME280;51842;47.450;8.654;2023-02-17T06:36:29;96534.47;;;7.45;61.44
44297;BME280;51842;47.450;8.654;2023-02-17T06:38:54;96538.59;;;7.41;61.26
44297;BME280;51842;47.450;8.654;2023-02-17T06:41:20;96542.84;;;7.42;63.09
44297;BME280;51842;47.450;8.654;2023-02-17T06:43:46;96552.44;;;7.43;63.71
44297;BME280;51842;47.450;8.654;2023-02-17T06:46:18;96548.22;;;7.35;61.77
44297;BME280;51842;47.450;8.654;2023-02-17T06:48:44;96557.59;;;7.38;63.71
44297;BME280;51842;47.450;8.654;2023-02-17T06:51:10;96556.19;;;7.35;63.38
44297;BME280;51842;47.450;8.654;2023-02-17T06:53:35;96564.56;;;7.32;63.11
44297;BME280;51842;47.450;8.654;2023-02-17T06:56:01;96561.56;;;7.29;62.82
44297;BME280;51842;47.450;8.654;2023-02-17T06:58:27;96570.31;;;7.29;64.01
44297;BME280;51842;47.450;8.654;2023-02-17T07:00:56;96569.13;;;7.25;63.46
44297;BME280;51842;47.450;8.654;2023-02-17T07:03:21;96571.19;;;7.23;62.42
44297;BME280;51842;47.450;8.654;2023-02-17T07:05:47;96575.25;;;7.26;63.15
44297;BME280;51842;47.450;8.654;2023-02-17T07:08:13;96568.91;;;7.27;63.74
44297;BME280;51842;47.450;8.654;2023-02-17T07:10:39;96581.72;;;7.30;63.98
44297;BME280;51842;47.450;8.654;2023-02-17T07:13:05;96578.25;;;7.29;63.95
44297;BME280;51842;47.450;8.654;2023-02-17T07:15:31;96580.72;;;7.31;64.05
44297;BME280;51842;47.450;8.654;2023-02-17T07:17:57;96589.03;;;7.34;63.60
44297;BME280;51842;47.450;8.654;2023-02-17T07:20:22;96583.84;;;7.39;62.74
44297;BME280;51842;47.450;8.654;2023-02-17T07:22:48;96585.44;;;7.47;62.38
44297;BME280;51842;47.450;8.654;2023-02-17T07:25:17;96589.03;;;7.53;62.66
44297;BME280;51842;47.450;8.654;2023-02-17T07:27:43;96587.34;;;7.58;62.03
44297;BME280;51842;47.450;8.654;2023-02-17T07:30:15;96590.50;;;7.67;61.24
44297;BME280;51842;47.450;8.654;2023-02-17T07:32:42;96588.59;;;7.74;59.83
44297;BME280;51842;47.450;8.654;2023-02-17T07:35:14;96590.75;;;7.84;60.03
44297;BME280;51842;47.450;8.654;2023-02-17T07:37:46;96586.97;;;7.92;58.99
44297;BME280;51842;47.450;8.654;2023-02-17T07:40:19;96593.22;;;7.97;58.51
44297;BME280;51842;47.450;8.654;2023-02-17T07:42:45;96596.84;;;8.03;57.66
44297;BME280;51842;47.450;8.654;2023-02-17T07:45:13;96589.34;;;8.11;58.29
44297;BME280;51842;47.450;8.654;2023-02-17T07:47:39;96592.75;;;8.19;57.84
44297;BME280;51842;47.450;8.654;2023-02-17T07:50:09;96596.34;;;8.24;57.73
44297;BME280;51842;47.450;8.654;2023-02-17T07:52:37;96586.81;;;8.35;57.81
44297;BME280;51842;47.450;8.654;2023-02-17T07:55:09;96593.31;;;8.39;56.71
44297;BME280;51842;47.450;8.654;2023-02-17T07:57:35;96591.25;;;8.41;56.43
44297;BME280;51842;47.450;8.654;2023-02-17T08:00:05;96595.19;;;8.50;56.61
44297;BME280;51842;47.450;8.654;2023-02-17T08:02:31;96598.34;;;8.59;56.97
44297;BME280;51842;47.450;8.654;2023-02-17T08:04:57;96597.06;;;8.62;55.80
44297;BME280;51842;47.450;8.654;2023-02-17T08:07:23;96594.44;;;8.73;56.96
44297;BME280;51842;47.450;8.654;2023-02-17T08:09:49;96603.34;;;8.79;56.07
44297;BME280;51842;47.450;8.654;2023-02-17T08:12:33;96592.03;;;8.84;55.30
44297;BME280;51842;47.450;8.654;2023-02-17T08:15:18;96603.13;;;8.92;55.57
44297;BME280;51842;47.450;8.654;2023-02-17T08:17:46;96603.63;;;9.01;55.98
44297;BME280;51842;47.450;8.654;2023-02-17T08:20:18;96609.31;;;9.16;55.17
44297;BME280;51842;47.450;8.654;2023-02-17T08:22:47;96605.00;;;9.27;55.34
44297;BME280;51842;47.450;8.654;2023-02-17T08:25:13;96617.97;;;9.35;54.67
44297;BME280;51842;47.450;8.654;2023-02-17T08:27:42;96617.63;;;9.43;53.96
44297;BME280;51842;47.450;8.654;2023-02-17T08:30:09;96623.63;;;9.39;53.20
44297;BME280;51842;47.450;8.654;2023-02-17T08:32:37;96622.84;;;9.50;54.00
44297;BME280;51842;47.450;8.654;2023-02-17T08:35:04;96626.75;;;9.47;53.32
44297;BME280;51842;47.450;8.654;2023-02-17T08:37:31;96618.66;;;9.54;53.58
44297;BME280;51842;47.450;8.654;2023-02-17T08:39:58;96624.78;;;9.66;53.19
44297;BME280;51842;47.450;8.654;2023-02-17T08:42:27;96624.44;;;9.75;53.08
44297;BME280;51842;47.450;8.654;2023-02-17T08:44:53;96628.25;;;9.79;52.13
44297;BME280;51842;47.450;8.654;2023-02-17T08:47:25;96629.03;;;9.91;52.58
44297;BME280;51842;47.450;8.654;2023-02-17T08:49:51;96637.09;;;9.96;52.24
44297;BME280;51842;47.450;8.654;2023-02-17T08:52:18;96640.47;;;10.03;52.12
44297;BME280;51842;47.450;8.654;2023-02-17T08:54:44;96638.16;;;10.07;51.99
44297;BME280;51842;47.450;8.654;2023-02-17T08:57:13;96648.78;;;10.18;52.67
44297;BME280;51842;47.450;8.654;2023-02-17T08:59:39;96648.19;;;10.28;52.43
44297;BME280;51842;47.450;8.654;2023-02-17T09:02:09;96646.19;;;10.35;51.71
44297;BME280;51842;47.450;8.654;2023-02-17T09:04:35;96649.44;;;10.37;51.32
44297;BME280;51842;47.450;8.654;2023-02-17T09:07:01;96652.03;;;10.49;50.96
44297;BME280;51842;47.450;8.654;2023-02-17T09:09:27;96658.06;;;10.56;50.52
44297;BME280;51842;47.450;8.654;2023-02-17T09:11:57;96662.44;;;10.62;50.37
44297;BME280;51842;47.450;8.654;2023-02-17T09:14:23;96651.81;;;10.79;50.45
44297;BME280;51842;47.450;8.654;2023-02-17T09:16:59;96652.63;;;10.97;50.46
44297;BME280;51842;47.450;8.654;2023-02-17T09:19:30;96654.25;;;11.15;50.28
44297;BME280;51842;47.450;8.654;2023-02-17T09:21:56;96662.81;;;11.33;49.35
44297;BME280;51842;47.450;8.654;2023-02-17T09:24:22;96652.41;;;11.32;49.64
44297;BME280;51842;47.450;8.654;2023-02-17T09:26:48;96657.28;;;11.35;48.96
44297;BME280;51842;47.450;8.654;2023-02-17T09:29:17;96666.84;;;11.53;49.80
44297;BME280;51842;47.450;8.654;2023-02-17T09:31:42;96665.34;;;11.40;48.54
44297;BME280;51842;47.450;8.654;2023-02-17T09:34:10;96670.94;;;11.39;48.71
44297;BME280;51842;47.450;8.654;2023-02-17T09:36:40;96672.03;;;11.43;49.12
44297;BME280;51842;47.450;8.654;2023-02-17T09:39:06;96669.22;;;11.49;48.91
44297;BME280;51842;47.450;8.654;2023-02-17T09:41:49;96669.69;;;11.46;48.05
44297;BME280;51842;47.450;8.654;2023-02-17T09:44:39;96670.00;;;11.50;47.83
44297;BME280;51842;47.450;8.654;2023-02-17T09:47:23;96675.13;;;11.51;47.95
44297;BME280;51842;47.450;8.654;2023-02-17T09:50:13;96674.88;;;11.53;48.40
44297;BME280;51842;47.450;8.654;2023-02-17T09:53:05;96682.78;;;11.65;48.29
44297;BME280;51842;47.450;8.654;2023-02-17T09:55:43;96686.75;;;11.62;47.67
44297;BME280;51842;47.450;8.654;2023-02-17T09:58:53;96681.25;;;11.69;47.76
44297;BME280;51842;47.450;8.654;2023-02-17T10:01:29;96687.22;;;11.76;47.49
44297;BME280;51842;47.450;8.654;2023-02-17T10:04:19;96678.25;;;11.82;47.72
44297;BME280;51842;47.450;8.654;2023-02-17T10:07:06;96673.97;;;11.98;47.84
44297;BME280;51842;47.450;8.654;2023-02-17T10:12:29;96679.84;;;12.00;47.37
44297;BME280;51842;47.450;8.654;2023-02-17T10:15:13;96681.88;;;11.93;47.99
44297;BME280;51842;47.450;8.654;2023-02-17T10:21:24;96684.16;;;12.01;48.65
44297;BME280;51842;47.450;8.654;2023-02-17T10:23:51;96674.28;;;12.23;49.06
44297;BME280;51842;47.450;8.654;2023-02-17T10:27:00;96675.97;;;12.52;48.23
44297;BME280;51842;47.450;8.654;2023-02-17T10:33:13;96671.22;;;12.59;48.77
44297;BME280;51842;47.450;8.654;2023-02-17T10:36:18;96676.78;;;12.79;47.65
44297;BME280;51842;47.450;8.654;2023-02-17T10:39:51;96668.34;;;13.19;46.82
44297;BME280;51842;47.450;8.654;2023-02-17T10:42:34;96674.44;;;13.42;47.29
44297;BME280;51842;47.450;8.654;2023-02-17T10:45:32;96678.91;;;14.11;45.94
44297;BME280;51842;47.450;8.654;2023-02-17T10:51:00;96673.53;;;14.58;45.89
44297;BME280;51842;47.450;8.654;2023-02-17T10:53:37;96666.56;;;14.68;45.03
44297;BME280;51842;47.450;8.654;2023-02-17T10:59:19;96652.50;;;14.40;45.57
44297;BME280;51842;47.450;8.654;2023-02-17T11:01:47;96670.00;;;14.53;46.09
44297;BME280;51842;47.450;8.654;2023-02-17T11:04:13;96664.13;;;14.56;46.00
44297;BME280;51842;47.450;8.654;2023-02-17T11:07:00;96662.50;;;14.60;46.15
44297;BME280;51842;47.450;8.654;2023-02-17T11:09:29;96656.59;;;14.53;45.97
44297;BME280;51842;47.450;8.654;2023-02-17T11:12:20;96656.59;;;14.53;46.28
44297;BME280;51842;47.450;8.654;2023-02-17T11:14:52;96651.72;;;14.40;46.64
44297;BME280;51842;47.450;8.654;2023-02-17T11:17:37;96643.81;;;14.07;47.58
44297;BME280;51842;47.450;8.654;2023-02-17T11:22:45;96635.19;;;14.00;47.99
44297;BME280;51842;47.450;8.654;2023-02-17T11:25:33;96637.16;;;13.68;48.40
44297;BME280;51842;47.450;8.654;2023-02-17T11:28:12;96640.59;;;13.63;48.57
44297;BME280;51842;47.450;8.654;2023-02-17T11:30:57;96635.22;;;13.58;49.28
44297;BME280;51842;47.450;8.654;2023-02-17T11:33:38;96632.91;;;13.34;49.72
44297;BME280;51842;47.450;8.654;2023-02-17T11:36:23;96628.97;;;13.42;49.29
44297;BME280;51842;47.450;8.654;2023-02-17T11:38:50;96628.69;;;13.43;49.70
44297;BME280;51842;47.450;8.654;2023-02-17T11:41:16;96616.72;;;13.56;49.55
44297;BME280;51842;47.450;8.654;2023-02-17T11:43:58;96615.97;;;13.61;50.07
44297;BME280;51842;47.450;8.654;2023-02-17T11:46:51;96611.75;;;13.75;49.95
44297;BME280;51842;47.450;8.654;2023-02-17T11:52:52;96594.09;;;13.74;49.94
44297;BME280;51842;47.450;8.654;2023-02-17T12:01:48;96595.88;;;13.58;50.90
44297;BME280;51842;47.450;8.654;2023-02-17T12:04:32;96599.47;;;13.79;51.03
44297;BME280;51842;47.450;8.654;2023-02-17T12:13:52;96601.34;;;13.36;54.56
44297;BME280;51842;47.450;8.654;2023-02-17T12:17:05;96600.41;;;13.58;53.06
44297;BME280;51842;47.450;8.654;2023-02-17T12:20:45;96589.81;;;13.78;52.43
44297;BME280;51842;47.450;8.654;2023-02-17T12:33:52;96595.31;;;14.09;55.89
44297;BME280;51842;47.450;8.654;2023-02-17T12:36:33;96594.03;;;13.69;58.12
44297;BME280;51842;47.450;8.654;2023-02-17T12:39:54;96590.47;;;13.53;61.79
44297;BME280;51842;47.450;8.654;2023-02-17T12:42:54;96591.25;;;13.49;62.11
44297;BME280;51842;47.450;8.654;2023-02-17T12:45:44;96585.84;;;13.38;62.60
44297;BME280;51842;47.450;8.654;2023-02-17T12:51:30;96577.28;;;13.04;63.54
44297;BME280;51842;47.450;8.654;2023-02-17T12:59:42;96579.81;;;12.89;62.05
44297;BME280;51842;47.450;8.654;2023-02-17T13:02:18;96576.16;;;13.00;59.44
44297;BME280;51842;47.450;8.654;2023-02-17T13:04:57;96576.78;;;13.07;57.93
44297;BME280;51842;47.450;8.654;2023-02-17T13:10:39;96573.31;;;13.12;57.83
44297;BME280;51842;47.450;8.654;2023-02-17T13:13:29;96577.91;;;13.16;57.41
44297;BME280;51842;47.450;8.654;2023-02-17T13:16:13;96583.13;;;13.33;58.80
44297;BME280;51842;47.450;8.654;2023-02-17T13:18:47;96586.72;;;13.49;58.04
44297;BME280;51842;47.450;8.654;2023-02-17T13:24:29;96574.41;;;13.48;57.47
44297;BME280;51842;47.450;8.654;2023-02-17T13:26:56;96578.69;;;13.49;56.99
44297;BME280;51842;47.450;8.654;2023-02-17T13:29:35;96572.44;;;13.33;56.08
44297;BME280;51842;47.450;8.654;2023-02-17T13:32:09;96577.00;;;13.38;56.65
44297;BME280;51842;47.450;8.654;2023-02-17T13:34:42;96571.97;;;13.41;56.42
44297;BME280;51842;47.450;8.654;2023-02-17T13:37:43;96563.75;;;13.58;55.79
44297;BME280;51842;47.450;8.654;2023-02-17T13:42:53;96559.28;;;13.74;55.43
44297;BME280;51842;47.450;8.654;2023-02-17T13:45:39;96568.31;;;13.63;55.06
44297;BME280;51842;47.450;8.654;2023-02-17T13:48:30;96562.16;;;13.62;55.19
44297;BME280;51842;47.450;8.654;2023-02-17T13:51:05;96562.16;;;13.57;55.04
44297;BME280;51842;47.450;8.654;2023-02-17T13:53:41;96565.75;;;13.36;55.20
44297;BME280;51842;47.450;8.654;2023-02-17T13:56:29;96566.50;;;13.31;55.37
44297;BME280;51842;47.450;8.654;2023-02-17T13:59:22;96565.78;;;13.41;55.87
44297;BME280;51842;47.450;8.654;2023-02-17T14:01:48;96558.78;;;13.35;55.46
44297;BME280;51842;47.450;8.654;2023-02-17T14:04:27;96557.03;;;13.51;55.12
44297;BME280;51842;47.450;8.654;2023-02-17T14:07:03;96562.63;;;13.49;54.86
44297;BME280;51842;47.450;8.654;2023-02-17T14:09:33;96557.81;;;13.51;55.39
44297;BME280;51842;47.450;8.654;2023-02-17T14:12:06;96558.69;;;13.62;56.32
44297;BME280;51842;47.450;8.654;2023-02-17T14:14:37;96560.28;;;13.58;55.19
44297;BME280;51842;47.450;8.654;2023-02-17T14:17:24;96558.38;;;13.58;55.37
44297;BME280;51842;47.450;8.654;2023-02-17T14:19:53;96557.34;;;13.64;55.13
44297;BME280;51842;47.450;8.654;2023-02-17T14:22:27;96555.44;;;13.60;55.16
44297;BME280;51842;47.450;8.654;2023-02-17T14:25:11;96561.84;;;13.54;55.60
44297;BME280;51842;47.450;8.654;2023-02-17T14:27:47;96564.00;;;13.57;55.44
44297;BME280;51842;47.450;8.654;2023-02-17T14:30:38;96569.66;;;13.65;55.77
44297;BME280;51842;47.450;8.654;2023-02-17T14:33:25;96565.84;;;13.51;55.73
44297;BME280;51842;47.450;8.654;2023-02-17T14:36:03;96570.47;;;13.61;55.38
44297;BME280;51842;47.450;8.654;2023-02-17T14:38:36;96574.22;;;13.65;56.24
44297;BME280;51842;47.450;8.654;2023-02-17T14:41:07;96580.66;;;13.69;61.17
44297;BME280;51842;47.450;8.654;2023-02-17T14:43:34;96572.91;;;13.68;62.22
44297;BME280;51842;47.450;8.654;2023-02-17T14:46:01;96564.81;;;13.62;64.74
44297;BME280;51842;47.450;8.654;2023-02-17T14:48:27;96563.22;;;13.61;65.01
44297;BME280;51842;47.450;8.654;2023-02-17T14:50:57;96561.88;;;13.59;64.67
44297;BME280;51842;47.450;8.654;2023-02-17T14:53:32;96560.28;;;13.58;65.62
44297;BME280;51842;47.450;8.654;2023-02-17T14:56:59;96565.59;;;13.53;66.67
44297;BME280;51842;47.450;8.654;2023-02-17T14:59:27;96579.25;;;13.51;67.04
44297;BME280;51842;47.450;8.654;2023-02-17T15:01:53;96573.59;;;13.48;68.58
44297;BME280;51842;47.450;8.654;2023-02-17T15:04:20;96579.16;;;13.41;68.98
44297;BME280;51842;47.450;8.654;2023-02-17T15:06:51;96577.22;;;13.31;68.83
44297;BME280;51842;47.450;8.654;2023-02-17T15:09:29;96570.97;;;13.20;68.26